Time;durP1;ratioP1;P1;durP2;ratioP2;P2;SDS_P1;SDS_P2;PMS_P1;PMS_P2;Temp;Humidity;BMP_temperature;BMP_pressure;BME280_temperature;BME280_humidity;BME280_pressure;Samples;Min_cycle;Max_cycle;Signal;HPM_P1;HPM_P2
2021/07/25 00:01:38;;;;;;;6.30;3.80;;;26.20;48.20;;;;;;5070413;28;20049;-69
2021/07/25 00:04:06;;;;;;;4.38;3.97;;;26.20;48.20;;;;;;5070151;28;20135;-69
2021/07/25 00:06:33;;;;;;;5.03;4.47;;;26.20;48.20;;;;;;5070132;28;20132;-69
2021/07/25 00:09:00;;;;;;;3.78;3.47;;;26.20;48.30;;;;;;5070380;28;20242;-69
2021/07/25 00:11:28;;;;;;;4.45;4.00;;;26.20;48.30;;;;;;5070190;28;20094;-69
2021/07/25 00:13:57;;;;;;;4.25;3.78;;;26.20;48.30;;;;;;5070489;28;20084;-69
2021/07/25 00:16:25;;;;;;;4.25;3.85;;;26.10;48.30;;;;;;5070356;28;20044;-69
2021/07/25 00:18:52;;;;;;;4.45;4.03;;;26.20;48.40;;;;;;5070254;28;20049;-68
2021/07/25 00:21:19;;;;;;;4.22;3.85;;;26.20;48.30;;;;;;5070538;28;20213;-69
2021/07/25 00:23:49;;;;;;;4.03;3.63;;;26.20;48.30;;;;;;5069982;28;20095;-69
2021/07/25 00:26:18;;;;;;;4.07;3.70;;;26.10;48.30;;;;;;5070547;28;20707;-69
2021/07/25 00:28:45;;;;;;;4.28;3.92;;;26.20;48.40;;;;;;5069920;28;20124;-69
2021/07/25 00:31:13;;;;;;;4.63;4.22;;;26.10;48.30;;;;;;5070266;28;20604;-69
2021/07/25 00:33:40;;;;;;;4.40;4.00;;;26.10;48.30;;;;;;5068850;28;20122;-69
2021/07/25 00:36:07;;;;;;;4.68;4.22;;;26.10;48.30;;;;;;5069942;28;20135;-69
2021/07/25 00:38:35;;;;;;;3.75;3.45;;;26.10;48.30;;;;;;5069831;28;20075;-69
2021/07/25 00:41:12;;;;;;;4.70;3.83;;;26.20;48.40;;;;;;5070087;28;20052;-69
2021/07/25 00:43:40;;;;;;;3.65;3.30;;;26.10;48.30;;;;;;5070219;28;20072;-69
2021/07/25 00:46:08;;;;;;;4.10;3.72;;;26.10;48.30;;;;;;5069918;28;20044;-69
2021/07/25 00:48:36;;;;;;;4.20;3.88;;;26.10;48.30;;;;;;5068181;28;20040;-69
2021/07/25 00:51:05;;;;;;;4.25;3.45;;;26.10;48.30;;;;;;5069947;28;20499;-69
2021/07/25 00:53:35;;;;;;;3.60;3.30;;;26.10;48.40;;;;;;5069638;28;20108;-69
2021/07/25 00:56:04;;;;;;;4.72;3.65;;;26.10;48.30;;;;;;5069723;28;21010;-69
2021/07/25 00:58:31;;;;;;;4.40;4.00;;;26.10;48.30;;;;;;5069282;28;20125;-64
2021/07/25 01:00:58;;;;;;;4.32;4.00;;;26.20;48.40;;;;;;5069316;28;20132;-69
2021/07/25 01:03:57;;;;;;;4.47;4.07;;;26.10;48.30;;;;;;5068456;28;21011;-69
2021/07/25 01:06:57;;;;;;;4.25;3.65;;;26.10;48.30;;;;;;5069750;28;20566;-69
2021/07/25 01:09:43;;;;;;;4.40;3.95;;;26.10;48.30;;;;;;5069788;28;20098;-69
2021/07/25 01:12:28;;;;;;;4.30;3.90;;;26.10;48.30;;;;;;5068084;28;20131;-69
2021/07/25 01:14:57;;;;;;;4.97;4.50;;;26.20;48.30;;;;;;5069387;28;20071;-69
2021/07/25 01:17:37;;;;;;;3.97;3.60;;;26.20;48.30;;;;;;5069520;28;20127;-69
2021/07/25 01:20:07;;;;;;;3.97;3.60;;;26.10;48.30;;;;;;5068113;28;20127;-69
2021/07/25 01:22:39;;;;;;;3.97;3.67;;;26.20;48.30;;;;;;5068676;28;20136;-69
2021/07/25 01:25:09;;;;;;;4.55;4.15;;;26.10;48.20;;;;;;5069488;28;20072;-69
2021/07/25 01:27:58;;;;;;;4.57;4.07;;;26.20;48.40;;;;;;5069020;28;20057;-69
2021/07/25 01:30:30;;;;;;;5.30;3.45;;;26.20;48.30;;;;;;5068695;28;20485;-69
2021/07/25 01:33:04;;;;;;;4.25;3.85;;;26.10;48.30;;;;;;5068614;28;20052;-69
2021/07/25 01:35:33;;;;;;;3.88;3.53;;;26.10;48.30;;;;;;5068716;28;20127;-69
2021/07/25 01:38:01;;;;;;;4.55;4.13;;;26.10;48.30;;;;;;5068940;28;20052;-69
2021/07/25 01:40:28;;;;;;;3.95;3.65;;;26.10;48.30;;;;;;5068510;28;20078;-69
2021/07/25 01:42:56;;;;;;;3.80;3.47;;;26.20;48.40;;;;;;5069026;28;20056;-69
2021/07/25 01:45:23;;;;;;;4.45;4.05;;;26.10;48.30;;;;;;5068561;28;20044;-69
2021/07/25 01:47:50;;;;;;;4.28;3.88;;;26.10;48.30;;;;;;5067288;28;20095;-69
2021/07/25 01:50:17;;;;;;;7.90;4.30;;;26.10;48.40;;;;;;5068610;28;20724;-69
2021/07/25 01:52:45;;;;;;;4.35;3.75;;;26.10;48.30;;;;;;5068382;28;20102;-69
2021/07/25 01:55:13;;;;;;;4.35;3.95;;;26.10;48.40;;;;;;5067985;28;20079;-69
2021/07/25 01:57:40;;;;;;;3.97;3.67;;;26.10;48.40;;;;;;5068461;28;20135;-69
2021/07/25 02:00:08;;;;;;;4.72;4.32;;;26.10;48.30;;;;;;5067872;28;20084;-69
2021/07/25 02:02:35;;;;;;;4.55;4.13;;;26.10;48.40;;;;;;5068569;28;20059;-69
2021/07/25 02:05:05;;;;;;;4.32;3.95;;;26.10;48.40;;;;;;5068147;28;20181;-69
2021/07/25 02:07:33;;;;;;;4.30;3.90;;;26.10;48.40;;;;;;5067085;28;20057;-69
2021/07/25 02:10:00;;;;;;;4.38;3.97;;;26.10;48.40;;;;;;5068060;28;20052;-69
2021/07/25 02:12:27;;;;;;;4.63;4.20;;;26.10;48.40;;;;;;5068381;28;20127;-69
2021/07/25 02:14:54;;;;;;;4.18;3.78;;;26.10;48.40;;;;;;5068165;28;20724;-69
2021/07/25 02:17:22;;;;;;;5.13;4.00;;;26.10;48.40;;;;;;5068095;28;20523;-69
2021/07/25 02:19:49;;;;;;;3.95;3.58;;;26.10;48.50;;;;;;5067972;28;20708;-69
2021/07/25 02:22:16;;;;;;;3.72;3.42;;;26.10;48.40;;;;;;5067823;28;20214;-69
2021/07/25 02:24:44;;;;;;;4.50;4.13;;;26.10;48.40;;;;;;5067858;28;20528;-69
2021/07/25 02:27:11;;;;;;;4.60;4.10;;;26.10;48.40;;;;;;5066708;28;20048;-64
2021/07/25 02:29:39;;;;;;;4.38;3.97;;;26.10;48.40;;;;;;5068266;28;20123;-69
2021/07/25 02:32:06;;;;;;;4.55;4.15;;;26.10;48.50;;;;;;5068069;28;20438;-69
2021/07/25 02:34:33;;;;;;;5.13;4.22;;;26.10;48.50;;;;;;5066403;28;20049;-69
2021/07/25 02:37:00;;;;;;;4.15;3.75;;;26.10;48.40;;;;;;5067784;28;20594;-69
2021/07/25 02:39:28;;;;;;;4.28;3.88;;;26.10;48.40;;;;;;5067759;28;20063;-69
2021/07/25 02:41:55;;;;;;;4.43;4.03;;;26.10;48.40;;;;;;5066468;28;20444;-64
2021/07/25 02:44:22;;;;;;;4.50;4.10;;;26.10;48.40;;;;;;5066685;28;20084;-69
2021/07/25 02:46:49;;;;;;;5.03;4.43;;;26.10;48.40;;;;;;5067756;28;20048;-70
2021/07/25 02:49:17;;;;;;;4.13;3.72;;;26.10;48.40;;;;;;5067959;28;20044;-69
2021/07/25 02:51:44;;;;;;;4.80;3.83;;;26.10;48.40;;;;;;5067927;28;20502;-69
2021/07/25 02:54:11;;;;;;;4.65;4.25;;;26.10;48.30;;;;;;5067618;28;20062;-69
2021/07/25 02:56:38;;;;;;;5.13;4.55;;;26.10;48.30;;;;;;5067484;28;20049;-69
2021/07/25 02:59:05;;;;;;;4.15;3.78;;;26.10;48.30;;;;;;5067326;28;20040;-69
2021/07/25 03:01:33;;;;;;;5.82;3.88;;;26.10;48.90;;;;;;5067409;28;20242;-69
2021/07/25 03:04:00;;;;;;;4.43;4.03;;;26.10;48.30;;;;;;5067658;28;20048;-69
2021/07/25 03:06:27;;;;;;;4.80;4.40;;;26.10;48.30;;;;;;5067678;28;20128;-69
2021/07/25 03:08:54;;;;;;;4.68;4.28;;;26.10;48.40;;;;;;5067910;28;20120;-69
2021/07/25 03:11:21;;;;;;;5.13;4.63;;;26.10;48.30;;;;;;5068143;28;20123;-69
2021/07/25 03:13:48;;;;;;;5.03;4.53;;;26.10;48.30;;;;;;5070811;28;20056;-69
2021/07/25 03:16:16;;;;;;;8.50;4.70;;;26.10;48.30;;;;;;5071210;28;20044;-69
2021/07/25 03:18:43;;;;;;;5.88;4.50;;;26.10;48.40;;;;;;5071365;28;20106;-69
2021/07/25 03:21:11;;;;;;;4.75;4.25;;;26.10;48.40;;;;;;5070436;28;20050;-69
2021/07/25 03:23:38;;;;;;;6.15;4.65;;;26.10;48.40;;;;;;5070897;28;20123;-69
2021/07/25 03:26:05;;;;;;;4.70;4.30;;;26.10;48.40;;;;;;5071576;28;20549;-69
2021/07/25 03:28:33;;;;;;;5.45;4.95;;;26.10;48.40;;;;;;5071636;28;20607;-69
2021/07/25 03:31:00;;;;;;;5.50;5.00;;;26.10;48.40;;;;;;5070487;28;20056;-69
2021/07/25 03:33:27;;;;;;;5.38;4.85;;;26.10;48.40;;;;;;5071627;28;20139;-69
2021/07/25 03:35:54;;;;;;;5.20;4.75;;;26.10;48.40;;;;;;5070936;28;20497;-69
2021/07/25 03:38:22;;;;;;;6.10;5.43;;;26.10;48.40;;;;;;5071499;28;20040;-69
2021/07/25 03:40:50;;;;;;;5.30;4.80;;;26.10;48.40;;;;;;5069565;28;20072;-69
2021/07/25 03:43:17;;;;;;;5.28;4.88;;;26.10;48.40;;;;;;5071587;28;20071;-69
2021/07/25 03:45:47;;;;;;;5.28;4.78;;;26.10;48.40;;;;;;5070484;28;20106;-69
2021/07/25 03:48:15;;;;;;;5.10;4.60;;;26.10;48.40;;;;;;5071204;28;20048;-69
2021/07/25 03:50:43;;;;;;;5.50;5.00;;;26.10;48.40;;;;;;5069758;28;20048;-69
2021/07/25 03:53:10;;;;;;;5.35;4.85;;;26.10;48.40;;;;;;5071000;28;20056;-69
2021/07/25 03:55:38;;;;;;;5.65;5.05;;;26.10;48.40;;;;;;5070219;28;20131;-69
2021/07/25 03:58:05;;;;;;;5.40;4.90;;;26.10;48.40;;;;;;5071133;28;20074;-69
2021/07/25 04:00:32;;;;;;;6.05;5.45;;;26.10;48.40;;;;;;5070271;28;20469;-68
2021/07/25 04:03:00;;;;;;;5.75;5.15;;;26.10;48.40;;;;;;5070885;28;20135;-68
2021/07/25 04:05:29;;;;;;;5.43;4.90;;;26.10;48.40;;;;;;5070119;28;20045;-69
2021/07/25 04:07:56;;;;;;;5.40;4.90;;;26.10;48.40;;;;;;5070912;28;20131;-69
2021/07/25 04:10:23;;;;;;;6.43;5.82;;;26.10;48.40;;;;;;5070053;28;20054;-69
2021/07/25 04:12:50;;;;;;;6.47;5.70;;;26.10;48.30;;;;;;5070464;28;20127;-69
2021/07/25 04:15:20;;;;;;;6.78;5.57;;;26.10;48.30;;;;;;5070882;28;20698;-69
2021/07/25 04:17:47;;;;;;;6.03;5.40;;;26.10;48.30;;;;;;5070140;28;20703;-69
2021/07/25 04:20:14;;;;;;;6.28;5.65;;;26.10;48.30;;;;;;5070638;28;20071;-64
2021/07/25 04:22:41;;;;;;;6.43;5.82;;;26.20;48.30;;;;;;5069810;28;20079;-69
2021/07/25 04:25:09;;;;;;;6.10;5.50;;;26.20;48.30;;;;;;5070276;28;20076;-69
2021/07/25 04:27:37;;;;;;;5.97;5.43;;;26.20;48.30;;;;;;5068566;28;20880;-69
2021/07/25 04:30:04;;;;;;;6.07;5.53;;;26.20;48.20;;;;;;5070168;28;20079;-69
2021/07/25 04:32:32;;;;;;;5.93;5.43;;;26.20;48.20;;;;;;5069807;28;20087;-69
2021/07/25 04:34:59;;;;;;;7.20;6.50;;;26.30;48.20;;;;;;5069927;28;20139;-69
2021/07/25 04:37:28;;;;;;;10.60;5.78;;;26.20;48.20;;;;;;5069740;28;20056;-69
2021/07/25 04:39:56;;;;;;;7.22;5.82;;;26.30;48.20;;;;;;5070047;28;20044;-69
2021/07/25 04:42:25;;;;;;;6.20;5.60;;;26.30;48.10;;;;;;5069428;28;20091;-69
2021/07/25 04:45:03;;;;;;;6.47;5.80;;;26.30;48.10;;;;;;5070343;28;20049;-69
2021/07/25 04:47:38;;;;;;;7.20;5.53;;;26.30;48.00;;;;;;5069502;28;20079;-69
2021/07/25 04:50:10;;;;;;;6.07;5.40;;;26.30;48.00;;;;;;5070253;28;20044;-69
2021/07/25 04:52:42;;;;;;;7.75;6.43;;;26.40;48.00;;;;;;5069626;28;20076;-69
2021/07/25 04:55:12;;;;;;;6.18;5.65;;;26.40;48.00;;;;;;5069467;28;20500;-69
2021/07/25 04:57:42;;;;;;;9.98;5.82;;;26.40;47.90;;;;;;5069259;28;20131;-69
2021/07/25 05:00:16;;;;;;;6.28;5.78;;;26.40;47.80;;;;;;5069179;28;20139;-69
2021/07/25 05:02:43;;;;;;;6.93;6.22;;;26.40;47.80;;;;;;5069371;28;20136;-69
2021/07/25 05:05:12;;;;;;;5.95;5.40;;;26.50;47.80;;;;;;5069441;28;20105;-69
2021/07/25 05:07:40;;;;;;;7.32;6.63;;;26.50;47.70;;;;;;5069244;28;20111;-69
2021/07/25 05:10:09;;;;;;;6.93;6.20;;;26.50;47.80;;;;;;5068666;28;20052;-69
2021/07/25 05:12:44;;;;;;;7.30;6.53;;;26.50;48.00;;;;;;5069094;28;20090;-69
2021/07/25 05:15:18;;;;;;;7.43;6.68;;;26.40;48.10;;;;;;5069319;28;20139;-69
2021/07/25 05:18:06;;;;;;;7.53;6.70;;;26.40;48.20;;;;;;5068817;28;20131;-69
2021/07/25 05:20:58;;;;;;;9.25;8.02;;;26.40;48.40;;;;;;5069164;28;20140;-69
2021/07/25 05:23:40;;;;;;;7.68;6.95;;;26.30;48.60;;;;;;5068689;28;20485;-69
2021/07/25 05:26:10;;;;;;;8.23;7.43;;;26.20;48.90;;;;;;5068960;28;20502;-69
2021/07/25 05:28:38;;;;;;;8.13;7.32;;;26.10;49.10;;;;;;5067485;28;20497;-69
2021/07/25 05:31:08;;;;;;;7.75;6.95;;;26.00;49.50;;;;;;5067837;28;20036;-69
2021/07/25 05:33:35;;;;;;;8.02;7.22;;;25.80;49.70;;;;;;5068338;28;20055;-69
2021/07/25 05:36:02;;;;;;;8.07;7.38;;;25.70;50.10;;;;;;5067639;28;20088;-68
2021/07/25 05:38:29;;;;;;;10.82;7.78;;;25.60;50.40;;;;;;5068612;28;20135;-69
2021/07/25 05:40:57;;;;;;;8.75;7.95;;;25.50;50.70;;;;;;5068141;28;20047;-69
2021/07/25 05:43:24;;;;;;;8.70;7.90;;;25.40;51.10;;;;;;5068590;28;20157;-68
2021/07/25 05:45:52;;;;;;;9.13;8.20;;;25.30;51.40;;;;;;5069231;28;20056;-69
2021/07/25 05:48:19;;;;;;;9.02;8.13;;;25.20;51.50;;;;;;5056116;28;20083;-69
2021/07/25 05:50:46;;;;;;;9.60;8.38;;;25.10;51.80;;;;;;5057906;28;20127;-69
2021/07/25 05:54:18;;;;;;;9.38;8.48;;;24.90;52.60;;;;;;5053064;28;20061;-69
2021/07/25 05:57:50;;;;;;;9.50;8.60;;;24.90;52.60;;;;;;5047949;28;20095;-69
2021/07/25 06:27:25;;;;;;;10.00;9.07;;;24.30;54.10;;;;;;5051339;28;20138;-63
2021/07/25 06:29:52;;;;;;;9.30;8.40;;;24.20;54.40;;;;;;5053737;28;20171;-63
2021/07/25 06:32:19;;;;;;;9.73;8.73;;;24.20;54.80;;;;;;5067096;28;20398;-67
2021/07/25 06:34:47;;;;;;;10.05;9.05;;;24.20;55.10;;;;;;5065692;28;20052;-63
2021/07/25 06:37:14;;;;;;;9.50;8.57;;;24.20;55.30;;;;;;5068282;28;20131;-63
2021/07/25 06:39:41;;;;;;;9.50;8.60;;;24.20;55.30;;;;;;5067978;28;20103;-69
2021/07/25 06:42:09;;;;;;;10.18;9.18;;;24.20;55.30;;;;;;5068048;28;20123;-68
2021/07/25 06:44:36;;;;;;;9.95;8.82;;;24.20;55.30;;;;;;5067672;28;20587;-68
2021/07/25 06:47:03;;;;;;;9.77;8.77;;;24.20;55.30;;;;;;5068106;28;20135;-69
2021/07/25 06:49:30;;;;;;;10.65;9.55;;;24.10;55.20;;;;;;5067649;28;20484;-69
2021/07/25 06:51:57;;;;;;;9.77;8.82;;;24.20;55.20;;;;;;5066702;28;20056;-69
2021/07/25 06:54:24;;;;;;;10.07;9.05;;;24.10;55.20;;;;;;5067463;28;20087;-63
2021/07/25 06:56:51;;;;;;;9.65;8.75;;;24.10;55.20;;;;;;5068045;28;20046;-69
2021/07/25 06:59:19;;;;;;;9.15;8.25;;;24.10;55.20;;;;;;5066123;28;20083;-63
2021/07/25 07:01:46;;;;;;;10.45;8.70;;;24.10;55.20;;;;;;5067697;28;20045;-63
2021/07/25 07:04:14;;;;;;;9.75;8.75;;;24.10;55.20;;;;;;5067628;28;20127;-69
2021/07/25 07:06:41;;;;;;;9.40;8.50;;;24.10;55.30;;;;;;5067498;28;20055;-68
2021/07/25 07:09:08;;;;;;;9.20;8.30;;;24.10;55.30;;;;;;5066280;28;20128;-68
2021/07/25 07:11:36;;;;;;;10.77;9.23;;;24.10;55.30;;;;;;5067586;28;20044;-69
2021/07/25 07:14:03;;;;;;;9.82;8.82;;;24.10;55.40;;;;;;5067139;28;20098;-69
2021/07/25 07:16:30;;;;;;;9.32;8.43;;;24.10;55.50;;;;;;5067516;28;20053;-68
2021/07/25 07:18:57;;;;;;;9.43;8.52;;;24.10;55.50;;;;;;5067125;28;20044;-69
2021/07/25 07:21:24;;;;;;;12.23;8.95;;;24.10;55.50;;;;;;5067494;28;20584;-63
2021/07/25 07:23:52;;;;;;;9.80;8.80;;;24.10;55.50;;;;;;5067534;28;20048;-69
2021/07/25 07:26:19;;;;;;;9.40;8.40;;;24.10;55.60;;;;;;5067777;28;20475;-69
2021/07/25 07:28:46;;;;;;;10.23;9.23;;;24.10;55.60;;;;;;5067054;28;20048;-69
2021/07/25 07:31:13;;;;;;;9.30;8.40;;;24.10;55.60;;;;;;5067115;28;20075;-69
2021/07/25 07:33:40;;;;;;;10.43;9.30;;;24.10;55.60;;;;;;5066198;28;20045;-70
2021/07/25 07:36:08;;;;;;;9.25;8.35;;;24.10;55.60;;;;;;5067371;28;20087;-69
2021/07/25 07:38:35;;;;;;;10.05;9.15;;;24.10;55.60;;;;;;5067234;28;20048;-70
2021/07/25 07:41:02;;;;;;;11.32;8.52;;;24.20;55.60;;;;;;5067090;28;20052;-69
2021/07/25 07:43:29;;;;;;;9.73;8.85;;;24.20;55.60;;;;;;5067627;28;20071;-70
2021/07/25 07:45:56;;;;;;;9.57;8.57;;;24.20;55.50;;;;;;5067196;28;20053;-69
2021/07/25 07:48:25;;;;;;;9.15;8.25;;;24.20;55.50;;;;;;5067076;28;20084;-69
2021/07/25 07:50:52;;;;;;;9.10;8.20;;;24.20;55.50;;;;;;5067197;28;20041;-69
2021/07/25 07:53:20;;;;;;;10.82;9.52;;;24.30;55.50;;;;;;5067309;28;20131;-69
2021/07/25 07:55:48;;;;;;;10.05;8.32;;;24.30;55.60;;;;;;5066165;28;20048;-69
2021/07/25 07:58:15;;;;;;;9.10;8.30;;;24.30;55.60;;;;;;5069841;28;20041;-69
2021/07/25 08:00:42;;;;;;;9.55;8.48;;;24.30;55.50;;;;;;5070371;28;20144;-69
2021/07/25 08:03:09;;;;;;;9.55;8.65;;;24.30;55.60;;;;;;5071257;28;20106;-69
2021/07/25 08:05:37;;;;;;;10.00;9.05;;;24.30;55.60;;;;;;5070696;28;20048;-69
2021/07/25 08:08:04;;;;;;;10.18;9.00;;;24.30;55.60;;;;;;5070457;28;20609;-69
2021/07/25 08:10:34;;;;;;;9.15;8.25;;;24.40;55.60;;;;;;5069468;28;20404;-69
2021/07/25 08:13:02;;;;;;;8.55;7.75;;;24.30;55.60;;;;;;5070618;28;20048;-69
2021/07/25 08:15:30;;;;;;;9.52;8.52;;;24.40;55.70;;;;;;5069238;28;20049;-69
2021/07/25 08:17:57;;;;;;;8.68;7.88;;;24.40;55.90;;;;;;5070454;28;20139;-64
2021/07/25 08:20:24;;;;;;;9.88;8.52;;;24.40;55.70;;;;;;5069700;28;20127;-69
2021/07/25 08:22:51;;;;;;;9.82;8.82;;;24.40;55.90;;;;;;5070829;28;20044;-69
2021/07/25 08:25:19;;;;;;;9.65;8.55;;;24.40;55.90;;;;;;5070032;28;20116;-69
2021/07/25 08:27:46;;;;;;;10.45;9.45;;;24.40;55.90;;;;;;5070250;28;20095;-69
2021/07/25 08:30:13;;;;;;;9.90;8.90;;;24.40;55.90;;;;;;5069989;28;20044;-69
2021/07/25 08:32:40;;;;;;;9.32;8.43;;;24.40;55.90;;;;;;5070203;28;20084;-69
2021/07/25 08:35:11;;;;;;;9.23;8.25;;;24.40;55.90;;;;;;5070194;28;20048;-69
2021/07/25 08:37:39;;;;;;;10.00;9.00;;;24.40;55.90;;;;;;5070236;28;20087;-70
2021/07/25 08:40:07;;;;;;;8.70;7.90;;;24.40;56.00;;;;;;5069751;28;20488;-70
2021/07/25 08:42:42;;;;;;;9.90;8.90;;;24.40;56.00;;;;;;5070221;28;20467;-69
2021/07/25 08:45:10;;;;;;;9.48;8.52;;;24.40;56.00;;;;;;5069396;28;20108;-69
2021/07/25 08:47:39;;;;;;;9.50;8.60;;;24.40;56.10;;;;;;5070001;28;20127;-69
2021/07/25 08:50:15;;;;;;;9.18;8.27;;;24.40;56.20;;;;;;5069614;28;20174;-69
2021/07/25 08:52:45;;;;;;;10.07;8.55;;;24.40;56.20;;;;;;5070211;28;20118;-69
2021/07/25 08:55:17;;;;;;;9.15;8.25;;;24.40;56.20;;;;;;5069777;28;20076;-69
2021/07/25 08:57:49;;;;;;;11.35;9.25;;;24.40;56.30;;;;;;5069476;28;20087;-69
2021/07/25 09:00:19;;;;;;;9.90;8.90;;;24.50;56.40;;;;;;5069360;28;20071;-69
2021/07/25 09:02:48;;;;;;;10.32;9.07;;;24.50;56.40;;;;;;5069690;28;20121;-69
2021/07/25 09:05:16;;;;;;;10.05;9.05;;;24.50;56.30;;;;;;5070071;28;20048;-69
2021/07/25 09:07:48;;;;;;;9.93;8.68;;;24.50;56.30;;;;;;5068928;28;20059;-69
2021/07/25 09:10:17;;;;;;;9.93;8.73;;;24.50;56.30;;;;;;5068500;28;20520;-69
2021/07/25 09:12:46;;;;;;;10.27;9.27;;;24.50;56.40;;;;;;5067740;28;20544;-69
2021/07/25 09:15:17;;;;;;;9.68;8.75;;;24.50;56.50;;;;;;5069377;28;20135;-69
2021/07/25 09:17:48;;;;;;;8.80;7.90;;;24.50;56.50;;;;;;5069011;28;20044;-69
2021/07/25 09:20:36;;;;;;;10.23;9.07;;;24.50;56.50;;;;;;5069674;28;20151;-69
2021/07/25 09:23:08;;;;;;;9.63;8.70;;;24.60;56.50;;;;;;5069431;28;20079;-69
2021/07/25 09:25:53;;;;;;;9.75;8.75;;;24.60;56.40;;;;;;5068998;28;20084;-69
2021/07/25 09:28:32;;;;;;;9.27;8.38;;;24.60;56.40;;;;;;5069088;28;20070;-69
2021/07/25 09:31:11;;;;;;;8.75;7.90;;;24.60;56.30;;;;;;5067286;28;20071;-69
2021/07/25 09:33:42;;;;;;;9.40;8.50;;;24.60;56.30;;;;;;5068848;28;20141;-68
2021/07/25 09:36:15;;;;;;;8.82;8.02;;;24.70;56.30;;;;;;5069049;28;20079;-69
2021/07/25 09:38:45;;;;;;;7.80;7.00;;;24.70;56.30;;;;;;5067754;28;20055;-69
2021/07/25 09:41:17;;;;;;;;;;;24.70;56.20;;;;;;5069071;28;20104;-69
2021/07/25 09:44:04;;;;;;;8.43;7.63;;;24.70;56.10;;;;;;5068646;28;20392;-69
2021/07/25 09:46:45;;;;;;;8.73;7.93;;;24.70;56.20;;;;;;5068844;28;20044;-69
2021/07/25 09:49:13;;;;;;;9.15;8.25;;;24.70;56.20;;;;;;5068714;28;20056;-69
2021/07/25 09:51:41;;;;;;;9.13;8.18;;;24.80;56.10;;;;;;5068544;28;20101;-69
2021/07/25 09:54:09;;;;;;;10.13;8.68;;;24.80;56.20;;;;;;5068638;28;20444;-69
2021/07/25 09:56:36;;;;;;;8.75;7.85;;;24.80;56.20;;;;;;5067374;28;20051;-69
2021/07/25 09:59:23;;;;;;;8.63;7.70;;;24.80;56.20;;;;;;5068302;28;20146;-69
2021/07/25 10:01:50;;;;;;;8.77;7.88;;;24.80;56.20;;;;;;5067770;28;20073;-70
2021/07/25 10:04:21;;;;;;;8.13;7.32;;;24.80;56.20;;;;;;5068867;28;20055;-69
2021/07/25 10:06:50;;;;;;;8.65;7.75;;;24.80;56.30;;;;;;5068207;28;20044;-69
2021/07/25 10:09:19;;;;;;;8.85;7.95;;;24.80;56.10;;;;;;5068834;28;20055;-69
2021/07/25 10:11:49;;;;;;;8.60;7.70;;;24.80;56.10;;;;;;5068255;28;20041;-69
2021/07/25 10:14:19;;;;;;;8.85;7.97;;;24.80;56.10;;;;;;5067331;28;20098;-69
2021/07/25 10:16:52;;;;;;;9.40;8.43;;;24.80;56.10;;;;;;5068223;28;20041;-69
2021/07/25 10:19:34;;;;;;;8.60;7.70;;;24.80;56.20;;;;;;5067228;28;20088;-69
2021/07/25 10:22:11;;;;;;;8.85;7.72;;;24.80;56.20;;;;;;5066877;28;20056;-69
2021/07/25 10:24:39;;;;;;;8.18;7.38;;;24.80;56.10;;;;;;5068543;28;20048;-69
2021/07/25 10:27:07;;;;;;;7.97;7.05;;;24.90;56.20;;;;;;5067483;28;20530;-69
2021/07/25 10:29:39;;;;;;;8.60;7.70;;;24.80;56.20;;;;;;5068191;28;20140;-69
2021/07/25 10:32:08;;;;;;;7.50;6.72;;;24.80;56.20;;;;;;5066404;28;20068;-69
2021/07/25 10:34:40;;;;;;;9.25;8.15;;;24.80;56.20;;;;;;5067929;28;20123;-69
2021/07/25 10:37:09;;;;;;;8.38;7.18;;;24.80;56.20;;;;;;5067833;28;20040;-69
2021/07/25 10:39:42;;;;;;;8.77;7.40;;;24.80;56.20;;;;;;5068082;28;20055;-69
2021/07/25 10:42:17;;;;;;;8.55;7.65;;;24.80;56.20;;;;;;5067650;28;20051;-64
2021/07/25 10:44:44;;;;;;;8.02;7.30;;;24.80;56.20;;;;;;5067827;28;20527;-69
2021/07/25 10:47:24;;;;;;;8.02;7.25;;;24.80;56.20;;;;;;5067810;28;20702;-69
2021/07/25 10:50:06;;;;;;;7.80;7.07;;;24.80;56.20;;;;;;5067746;28;20082;-69
2021/07/25 10:53:02;;;;;;;8.23;7.43;;;24.80;56.10;;;;;;5067536;28;20060;-69
2021/07/25 10:55:47;;;;;;;7.97;6.90;;;24.80;56.10;;;;;;5067258;28;20124;-69
2021/07/25 10:58:20;;;;;;;7.32;6.63;;;24.90;56.10;;;;;;5067710;28;20128;-69
2021/07/25 11:00:51;;;;;;;7.20;6.50;;;24.80;56.10;;;;;;5067590;28;20103;-69
2021/07/25 11:03:39;;;;;;;8.13;7.30;;;24.90;56.10;;;;;;5066523;28;20075;-69
2021/07/25 11:06:15;;;;;;;8.25;7.45;;;24.90;56.10;;;;;;5066936;28;20049;-69
2021/07/25 11:08:44;;;;;;;8.13;7.32;;;24.90;56.10;;;;;;5066830;28;20049;-69
2021/07/25 11:11:52;;;;;;;7.70;7.00;;;24.90;56.00;;;;;;5067942;28;20123;-69
2021/07/25 11:14:57;;;;;;;7.95;7.15;;;24.90;55.90;;;;;;5055210;28;20084;-69
2021/07/25 11:17:47;;;;;;;7.32;6.63;;;25.00;55.80;;;;;;5067977;28;20132;-69
2021/07/25 11:20:37;;;;;;;7.57;6.87;;;25.00;55.70;;;;;;5067170;28;20140;-68
2021/07/25 11:23:26;;;;;;;7.43;6.50;;;25.00;55.60;;;;;;5067608;28;20108;-69
2021/07/25 11:25:54;;;;;;;7.93;7.18;;;25.10;55.60;;;;;;5067467;28;20080;-69
2021/07/25 11:28:39;;;;;;;7.07;6.38;;;25.00;55.60;;;;;;5067794;28;20054;-69
2021/07/25 11:31:08;;;;;;;7.68;6.88;;;25.10;55.60;;;;;;5067593;28;20080;-69
2021/07/25 11:33:47;;;;;;;7.65;6.78;;;25.10;56.10;;;;;;5069664;28;20443;-69
2021/07/25 11:36:20;;;;;;;7.57;6.85;;;25.10;55.70;;;;;;5071423;28;20056;-68
2021/07/25 11:38:55;;;;;;;7.70;6.97;;;25.10;55.70;;;;;;5070833;28;20125;-69
2021/07/25 11:41:36;;;;;;;8.15;6.70;;;25.10;55.70;;;;;;5072034;28;20044;-69
2021/07/25 11:44:09;;;;;;;7.82;7.03;;;25.10;55.70;;;;;;5070614;28;20044;-68
2021/07/25 11:46:42;;;;;;;7.25;6.55;;;25.10;55.80;;;;;;5071010;28;20079;-64
2021/07/25 11:49:25;;;;;;;7.90;7.13;;;25.10;55.80;;;;;;5070937;28;20417;-69
2021/07/25 11:52:09;;;;;;;6.72;6.10;;;25.10;55.80;;;;;;5071250;28;20045;-69
2021/07/25 11:54:42;;;;;;;8.45;7.40;;;25.10;55.80;;;;;;5070815;28;20052;-64
2021/07/25 11:57:12;;;;;;;6.93;6.22;;;25.10;55.90;;;;;;5070468;28;20099;-69
2021/07/25 11:59:53;;;;;;;7.95;7.13;;;25.10;55.90;;;;;;5071076;28;20185;-69
2021/07/25 12:02:28;;;;;;;7.32;6.57;;;25.10;56.00;;;;;;5070940;28;20044;-69
2021/07/25 12:04:59;;;;;;;7.80;7.00;;;25.10;56.00;;;;;;5070552;28;20045;-69
2021/07/25 12:07:46;;;;;;;7.45;6.70;;;25.10;56.30;;;;;;5070448;28;20067;-69
2021/07/25 12:10:14;;;;;;;7.47;6.78;;;25.10;56.20;;;;;;5071218;28;20048;-69
2021/07/25 12:12:43;;;;;;;7.15;6.43;;;25.10;56.30;;;;;;5070943;28;20048;-70
2021/07/25 12:15:12;;;;;;;7.03;6.32;;;25.10;56.20;;;;;;5069600;28;20105;-65
2021/07/25 12:17:44;;;;;;;7.85;7.03;;;25.10;56.30;;;;;;5070521;28;20044;-69
2021/07/25 12:20:36;;;;;;;7.25;6.55;;;25.10;56.40;;;;;;5069785;28;20071;-68
2021/07/25 12:23:06;;;;;;;7.35;6.63;;;25.10;56.50;;;;;;5069252;28;20412;-69
2021/07/25 12:25:52;;;;;;;7.68;6.88;;;25.10;56.50;;;;;;5069989;28;20128;-69
2021/07/25 12:28:23;;;;;;;6.75;6.03;;;25.10;56.50;;;;;;5070214;28;20051;-69
2021/07/25 12:30:56;;;;;;;7.78;6.95;;;25.10;56.60;;;;;;5069933;28;20084;-69
2021/07/25 12:33:32;;;;;;;7.07;6.38;;;25.10;56.60;;;;;;5070464;28;20048;-68
2021/07/25 12:36:11;;;;;;;7.15;6.45;;;25.10;56.60;;;;;;5070530;28;20413;-69
2021/07/25 12:38:38;;;;;;;7.32;6.57;;;25.10;56.50;;;;;;5069798;28;20493;-69
2021/07/25 12:41:06;;;;;;;6.80;6.10;;;25.10;56.60;;;;;;5070108;28;20080;-69
2021/07/25 12:43:33;;;;;;;6.97;6.25;;;25.10;56.60;;;;;;5070089;28;20497;-64
2021/07/25 12:46:01;;;;;;;6.85;6.15;;;25.10;56.60;;;;;;5069521;28;20044;-69
2021/07/25 12:48:35;;;;;;;6.38;5.78;;;25.10;56.60;;;;;;5070522;28;20048;-63
2021/07/25 12:51:30;;;;;;;6.68;6.07;;;25.10;56.60;;;;;;5069337;28;20048;-69
2021/07/25 12:53:56;;;;;;;7.53;6.57;;;25.10;56.50;;;;;;5069882;28;20079;-69
2021/07/25 12:56:30;;;;;;;7.68;6.90;;;25.20;56.60;;;;;;5069587;28;20159;-69
2021/07/25 12:59:04;;;;;;;8.60;6.85;;;25.20;56.50;;;;;;5069307;28;20054;-69
2021/07/25 13:04:24;;;;;;;7.07;5.95;;;25.20;56.50;;;;;;5068405;28;20044;-69
2021/07/25 13:06:52;;;;;;;7.45;6.53;;;25.20;56.50;;;;;;5069534;28;20044;-69
2021/07/25 13:09:20;;;;;;;7.40;6.70;;;25.20;56.50;;;;;;5067879;28;20098;-68
2021/07/25 13:11:49;;;;;;;7.07;6.32;;;25.20;56.50;;;;;;5069709;28;20045;-69
2021/07/25 13:14:28;;;;;;;6.83;6.17;;;25.20;56.40;;;;;;5069434;28;20083;-64
2021/07/25 13:16:57;;;;;;;7.00;6.25;;;25.20;56.40;;;;;;5069402;28;20459;-68
2021/07/25 13:19:25;;;;;;;7.03;6.32;;;25.20;56.30;;;;;;5068034;28;20135;-69
2021/07/25 13:21:53;;;;;;;6.70;6.03;;;25.20;56.30;;;;;;5068883;28;20087;-69
2021/07/25 13:24:20;;;;;;;6.57;5.97;;;25.20;56.30;;;;;;5069620;28;20816;-68
2021/07/25 13:26:47;;;;;;;6.50;5.90;;;25.20;56.30;;;;;;5068902;28;20139;-69
2021/07/25 13:29:14;;;;;;;6.68;5.75;;;25.20;56.30;;;;;;5069398;28;20669;-69
2021/07/25 13:31:41;;;;;;;6.57;5.95;;;25.20;56.30;;;;;;5068232;28;20037;-69
2021/07/25 13:34:09;;;;;;;6.53;5.93;;;25.20;56.20;;;;;;5069099;28;20290;-69
2021/07/25 13:36:37;;;;;;;6.85;6.15;;;25.20;56.10;;;;;;5069003;28;20049;-69